This is the latest recevied weather packets stored in our database for station/object KA7GOO. If no packets are shown the sender has not sent any weather packets the latest 1 day(s).
| Time | Temp. | Humidity | Pressure | Rain* | Wind** | Luminosity | Snow |
|---|---|---|---|---|---|---|---|
| 1778033785 | 21.67° C | 32% | 1003.2 hPa | 0 mm | 0 m/s | - | - |
| 1778032861 | 22.22° C | 32% | 1003 hPa | 0 mm | 0 m/s | - | - |
| 1778031957 | 22.78° C | 32% | 1002.9 hPa | 0 mm | 0 m/s | - | - |
| 1778031077 | 23.33° C | 31% | 1002.9 hPa | 0 mm | 0 m/s | - | - |
| 1778030112 | 24.44° C | 31% | 1002.9 hPa | 0 mm | 0 m/s | - | - |
| 1778029209 | 23.89° C | 31% | 1002.9 hPa | 0 mm | 0 m/s | - | - |
| 1778028315 | 23.33° C | 31% | 1002.8 hPa | 0 mm | 0 m/s | - | - |
| 1778027516 | 23.89° C | 31% | 1002.6 hPa | 0 mm | 0 m/s | - | - |
| 1778026502 | 23.89° C | 31% | 1002.5 hPa | 0 mm | 0 m/s | - | - |
| 1778025620 | 23.89° C | 31% | 1002.5 hPa | 0 mm | 0 m/s | - | - |
| 1778024783 | 24.44° C | 31% | 1002.4 hPa | 0 mm | 0 m/s | - | - |
| 1778023819 | 23.33° C | 31% | 1002.6 hPa | 0 mm | 0 m/s | - | - |
| 1778022984 | 23.33° C | 31% | 1002.8 hPa | 0 mm | 0 m/s | - | - |
| 1778022035 | 23.33° C | 31% | 1002.9 hPa | 0 mm | 0 m/s | - | - |
| 1778021188 | 23.33° C | 31% | 1003 hPa | 0 mm | 0 m/s | - | - |
| 1778020264 | 23.89° C | 32% | 1003.1 hPa | 0 mm | 0 m/s | - | - |
| 1778019386 | 23.33° C | 32% | 1003.4 hPa | 0 mm | 0 m/s | - | - |
| 1778018459 | 23.33° C | 32% | 1003.5 hPa | 0 mm | 0 m/s | - | - |
| 1778017595 | 22.78° C | 32% | 1003.6 hPa | 0 mm | 0 m/s | - | - |
| 1778016608 | 22.22° C | 32% | 1003.9 hPa | 0 mm | 0 m/s | - | - |
| 1778015768 | 22.78° C | 32% | 1003.9 hPa | 0 mm | 0 m/s | - | - |
| 1778014892 | 22.78° C | 32% | 1004 hPa | 0 mm | 0 m/s | - | - |
| 1778013904 | 22.78° C | 32% | 1004 hPa | 0 mm | 0 m/s | - | - |
| 1778013084 | 22.78° C | 32% | 1004 hPa | 0 mm | 0 m/s | - | - |
| 1778012190 | 22.22° C | 32% | 1004.2 hPa | 0 mm | 0 m/s | - | - |
* Rain latest hour (hover to see other rain measurements)
** Current wind speed in m/s (hover to see current wind gust speed)